地図

経路データ

SID SEASON NUMBER BASIN SUBBASIN NAME ISO_TIME NATURE LAT LON WMO_WIND WMO_PRES WMO_AGENCY TRACK_TYPE DIST2LAND LANDFALL IFLAG USA_AGENCY USA_ATCF_ID USA_LAT USA_LON USA_RECORD USA_STATUS USA_WIND USA_PRES USA_SSHS USA_R34_NE USA_R34_SE USA_R34_SW USA_R34_NW USA_R50_NE USA_R50_SE USA_R50_SW USA_R50_NW USA_R64_NE USA_R64_SE USA_R64_SW USA_R64_NW USA_POCI USA_ROCI USA_RMW USA_EYE TOKYO_LAT TOKYO_LON TOKYO_GRADE TOKYO_WIND TOKYO_PRES TOKYO_R50_DIR TOKYO_R50_LONG TOKYO_R50_SHORT TOKYO_R30_DIR TOKYO_R30_LONG TOKYO_R30_SHORT TOKYO_LAND CMA_LAT CMA_LON CMA_CAT CMA_WIND CMA_PRES HKO_LAT HKO_LON HKO_CAT HKO_WIND HKO_PRES NEWDELHI_LAT NEWDELHI_LON NEWDELHI_GRADE NEWDELHI_WIND NEWDELHI_PRES NEWDELHI_CI NEWDELHI_DP NEWDELHI_POCI REUNION_LAT REUNION_LON REUNION_TYPE REUNION_WIND REUNION_PRES REUNION_TNUM REUNION_CI REUNION_RMW REUNION_R34_NE REUNION_R34_SE REUNION_R34_SW REUNION_R34_NW REUNION_R50_NE REUNION_R50_SE REUNION_R50_SW REUNION_R50_NW REUNION_R64_NE REUNION_R64_SE REUNION_R64_SW REUNION_R64_NW BOM_LAT BOM_LON BOM_TYPE BOM_WIND BOM_PRES BOM_TNUM BOM_CI BOM_RMW BOM_R34_NE BOM_R34_SE BOM_R34_SW BOM_R34_NW BOM_R50_NE BOM_R50_SE BOM_R50_SW BOM_R50_NW BOM_R64_NE BOM_R64_SE BOM_R64_SW BOM_R64_NW BOM_ROCI BOM_POCI BOM_EYE BOM_POS_METHOD BOM_PRES_METHOD NADI_LAT NADI_LON NADI_CAT NADI_WIND NADI_PRES WELLINGTON_LAT WELLINGTON_LON WELLINGTON_WIND WELLINGTON_PRES DS824_LAT DS824_LON DS824_STAGE DS824_WIND DS824_PRES TD9636_LAT TD9636_LON TD9636_STAGE TD9636_WIND TD9636_PRES TD9635_LAT TD9635_LON TD9635_WIND TD9635_PRES TD9635_ROCI NEUMANN_LAT NEUMANN_LON NEUMANN_CLASS NEUMANN_WIND NEUMANN_PRES MLC_LAT MLC_LON MLC_CLASS MLC_WIND MLC_PRES USA_GUST BOM_GUST BOM_GUST_PER REUNION_GUST REUNION_GUST_PER USA_SEAHGT USA_SEARAD_NE USA_SEARAD_SE USA_SEARAD_SW USA_SEARAD_NW STORM_SPEED STORM_DIR
1983274N12251 1983 63 EP MM PRISCILLA 1983-09-30 18:00:00 TS 11.8000 -108.600 25 hurdat_epa main 910 910 O_________O___ hurdat_epa EP161983 11.8000 -108.600 TD 25 -1 11.8000 -108.600 1 25 7 286
1983274N12251 1983 63 EP MM PRISCILLA 1983-09-30 21:00:00 TS 11.9009 -108.951 main 928 926 P_________P___ EP161983 11.9026 -108.950 TD 25 -1 11.8959 -108.955 1 25 7 286
1983274N12251 1983 63 EP MM PRISCILLA 1983-10-01 00:00:00 TS 12.0000 -109.300 25 hurdat_epa main 938 938 O_________O___ hurdat_epa EP161983 12.0000 -109.300 TD 25 -1 12.0000 -109.300 1 25 7 286
1983274N12251 1983 63 EP MM PRISCILLA 1983-10-01 03:00:00 TS 12.0989 -109.645 main 946 946 P_________P___ EP161983 12.0925 -109.650 TD 27 -1 12.1183 -109.630 1 26 7 287
1983274N12251 1983 63 EP MM PRISCILLA 1983-10-01 06:00:00 TS 12.2115 -109.990 30 hurdat_epa main 960 958 O_________P___ hurdat_epa EP161983 12.2000 -110.000 TD 30 -1 12.2461 -109.959 1 27 7 291
1983274N12251 1983 63 EP MM PRISCILLA 1983-10-01 09:00:00 TS 12.3564 -110.329 main 961 961 P_________P___ EP161983 12.3499 -110.335 TD 30 -1 12.3759 -110.309 1 28 8 293
1983274N12251 1983 63 EP MM PRISCILLA 1983-10-01 12:00:00 TS 12.5000 -110.700 30 hurdat_epa main 979 979 O_________O___ hurdat_epa EP161983 12.5000 -110.700 TD 30 -1 12.5000 -110.700 1 30 8 288
1983274N12251 1983 63 EP MM PRISCILLA 1983-10-01 15:00:00 TS 12.6064 -111.134 main 999 999 P_________P___ EP161983 12.6074 -111.120 TD 32 -1 12.6034 -111.177 1 32 9 283
1983274N12251 1983 63 EP MM PRISCILLA 1983-10-01 18:00:00 TS 12.7001 -111.623 35 hurdat_epa main 1028 1028 O_________P___ hurdat_epa EP161983 12.7000 -111.600 TS 35 0 12.7005 -111.693 1 35 10 281
1983274N12251 1983 63 EP MM PRISCILLA 1983-10-01 21:00:00 TS 12.7937 -112.165 main 1066 1066 P_________P___ EP161983 12.7926 -112.150 TS 37 0 12.7972 -112.212 1 37 11 281
1983274N12251 1983 63 EP MM PRISCILLA 1983-10-02 00:00:00 TS 12.9000 -112.700 40 hurdat_epa main 1096 1096 O_________O___ hurdat_epa EP161983 12.9000 -112.700 TS 40 0 12.9000 -112.700 2 40 10 284
1983274N12251 1983 63 EP MM PRISCILLA 1983-10-02 03:00:00 TS 13.0428 -113.170 main 1127 1120 P_________P___ EP161983 13.0499 -113.187 TS 42 0 13.0215 -113.119 2 42 9 289
1983274N12251 1983 63 EP MM PRISCILLA 1983-10-02 06:00:00 TS 13.1874 -113.576 45 hurdat_epa main 1145 1145 O_________P___ hurdat_epa EP161983 13.2000 -113.600 TS 45 0 13.1495 -113.503 2 45 8 290
1983274N12251 1983 63 EP MM PRISCILLA 1983-10-02 09:00:00 TS 13.3000 -113.901 main 1150 1143 P_________P___ EP161983 13.3073 -113.915 TS 47 0 13.2778 -113.860 2 47 6 289
1983274N12251 1983 63 EP MM PRISCILLA 1983-10-02 12:00:00 TS 13.4000 -114.200 50 hurdat_epa main 1151 1149 O_________O___ hurdat_epa EP161983 13.4000 -114.200 TS 50 0 13.4000 -114.200 2 50 7 288
1983274N12251 1983 63 EP MM PRISCILLA 1983-10-02 15:00:00 TS 13.4997 -114.546 main 1153 1152 P_________P___ EP161983 13.5000 -114.550 TS 52 0 13.4988 -114.536 2 53 7 286
1983274N12251 1983 63 EP MM PRISCILLA 1983-10-02 18:00:00 TS 13.5980 -114.889 55 hurdat_epa main 1161 1161 O_________P___ hurdat_epa EP161983 13.6000 -114.900 TS 55 0 13.5921 -114.858 2 57 7 287
1983274N12251 1983 63 EP MM PRISCILLA 1983-10-02 21:00:00 TS 13.6917 -115.194 main 1166 1166 P_________P___ EP161983 13.6924 -115.200 TS 60 0 13.6894 -115.176 2 61 6 289
1983274N12251 1983 63 EP MM PRISCILLA 1983-10-03 00:00:00 TS 13.8000 -115.500 65 hurdat_epa main 1171 1167 O_________O___ hurdat_epa EP161983 13.8000 -115.500 HU 65 1 13.8000 -115.500 3 65 7 291
1983274N12251 1983 63 EP MM PRISCILLA 1983-10-03 03:00:00 TS 13.9397 -115.845 main 1177 1173 P_________P___ EP161983 13.9425 -115.843 HU 67 1 13.9315 -115.851 3 66 7 293
1983274N12251 1983 63 EP MM PRISCILLA 1983-10-03 06:00:00 TS 14.0944 -116.202 70 hurdat_epa main 1181 1177 O_________P___ hurdat_epa EP161983 14.1000 -116.200 HU 70 1 14.0775 -116.208 3 67 8 294
1983274N12251 1983 63 EP MM PRISCILLA 1983-10-03 09:00:00 TS 14.2462 -116.558 main 1195 1186 P_________P___ EP161983 14.2500 -116.558 HU 70 1 14.2347 -116.560 3 68 7 294
1983274N12251 1983 63 EP MM PRISCILLA 1983-10-03 12:00:00 TS 14.4000 -116.900 70 hurdat_epa main 1196 1193 O_________O___ hurdat_epa EP161983 14.4000 -116.900 HU 70 1 14.4000 -116.900 4 70 7 295
1983274N12251 1983 63 EP MM PRISCILLA 1983-10-03 15:00:00 TS 14.5427 -117.215 main 1206 1198 P_________P___ EP161983 14.5424 -117.208 HU 80 1 14.5434 -117.239 4 77 7 297
1983274N12251 1983 63 EP MM PRISCILLA 1983-10-03 18:00:00 TS 14.6994 -117.515 90 hurdat_epa main 1209 1207 O_________P___ hurdat_epa EP161983 14.7000 -117.500 HU 90 2 14.6975 -117.560 4 85 7 300
1983274N12251 1983 63 EP MM PRISCILLA 1983-10-03 21:00:00 TS 14.8832 -117.830 main 1213 1212 P_________P___ EP161983 14.8850 -117.822 HU 95 2 14.8778 -117.851 4 92 7 305
1983274N12251 1983 63 EP MM PRISCILLA 1983-10-04 00:00:00 TS 15.1000 -118.100 100 hurdat_epa main 1218 1209 O_________O___ hurdat_epa EP161983 15.1000 -118.100 HU 100 3 15.1000 -118.100 4 100 6 316
1983274N12251 1983 63 EP MM PRISCILLA 1983-10-04 03:00:00 TS 15.3283 -118.280 main 1217 1201 P_________P___ EP161983 15.3199 -118.273 HU 100 3 15.3533 -118.301 4 100 6 329
1983274N12251 1983 63 EP MM PRISCILLA 1983-10-04 06:00:00 TS 15.6131 -118.415 100 hurdat_epa main 1201 1185 O_________P___ hurdat_epa EP161983 15.6000 -118.400 HU 100 3 15.6523 -118.460 4 100 7 337
1983274N12251 1983 63 EP MM PRISCILLA 1983-10-04 09:00:00 TS 15.9719 -118.560 main 1185 1154 P_________P___ EP161983 15.9625 -118.550 HU 100 3 16.0002 -118.589 4 100 8 341
1983274N12251 1983 63 EP MM PRISCILLA 1983-10-04 12:00:00 TS 16.4000 -118.700 100 hurdat_epa main 1154 1115 O_________O___ hurdat_epa EP161983 16.4000 -118.700 HU 100 3 16.4000 -118.700 4 100 10 343
1983274N12251 1983 63 EP MM PRISCILLA 1983-10-04 15:00:00 TS 16.8782 -118.853 main 1122 1085 P_________P___ EP161983 16.8850 -118.865 HU 97 3 16.8578 -118.818 4 96 10 345
1983274N12251 1983 63 EP MM PRISCILLA 1983-10-04 18:00:00 TS 17.3906 -118.981 95 hurdat_epa main 1085 1043 O_________P___ hurdat_epa EP161983 17.4000 -119.000 HU 95 2 17.3625 -118.923 4 92 10 350
1983274N12251 1983 63 EP MM PRISCILLA 1983-10-04 21:00:00 TS 17.9021 -119.047 main 1043 1009 P_________P___ EP161983 17.9075 -119.058 HU 90 2 17.8859 -119.015 4 88 10 354
1983274N12251 1983 63 EP MM PRISCILLA 1983-10-05 00:00:00 TS 18.4000 -119.100 85 hurdat_epa main 1009 985 O_________O___ hurdat_epa EP161983 18.4000 -119.100 HU 85 2 18.4000 -119.100 4 85 10 352
1983274N12251 1983 63 EP MM PRISCILLA 1983-10-05 03:00:00 TS 18.8541 -119.193 main 977 955 P_________P___ EP161983 18.8575 -119.200 HU 82 1 18.8440 -119.171 4 82 9 349
1983274N12251 1983 63 EP MM PRISCILLA 1983-10-05 06:00:00 TS 19.2944 -119.284 80 hurdat_epa main 955 926 O_________P___ hurdat_epa EP161983 19.3000 -119.300 HU 80 1 19.2774 -119.236 4 80 9 351
1983274N12251 1983 63 EP MM PRISCILLA 1983-10-05 09:00:00 TS 19.7261 -119.334 main 926 900 P_________P___ EP161983 19.7275 -119.343 HU 77 1 19.7221 -119.308 4 77 9 353
1983274N12251 1983 63 EP MM PRISCILLA 1983-10-05 12:00:00 TS 20.2000 -119.400 75 hurdat_epa main 900 877 O_________O___ hurdat_epa EP161983 20.2000 -119.400 HU 75 1 20.2000 -119.400 4 75 11 350
1983274N12251 1983 63 EP MM PRISCILLA 1983-10-05 15:00:00 TS 20.7725 -119.530 main 871 850 P_________P___ EP161983 20.7850 -119.535 HU 70 1 20.7350 -119.517 4 70 12 347
1983274N12251 1983 63 EP MM PRISCILLA 1983-10-05 18:00:00 TS 21.3762 -119.689 65 hurdat_epa main 841 805 O_________P___ hurdat_epa EP161983 21.4000 -119.700 HU 65 1 21.3050 -119.656 4 65 12 347
1983274N12251 1983 63 EP MM PRISCILLA 1983-10-05 21:00:00 TS 21.9424 -119.831 main 805 768 P_________P___ EP161983 21.9574 -119.835 HU 60 0 21.8975 -119.817 4 60 12 346
1983274N12251 1983 63 EP MM PRISCILLA 1983-10-06 00:00:00 TS 22.5000 -120.000 55 hurdat_epa main 768 740 O_________O___ hurdat_epa EP161983 22.5000 -120.000 TS 55 0 22.5000 -120.000 2 55 12 341
1983274N12251 1983 63 EP MM PRISCILLA 1983-10-06 03:00:00 TS 23.0536 -120.246 main 732 716 P_________P___ EP161983 23.0351 -120.243 TS 50 0 23.1094 -120.255 2 48 12 338
1983274N12251 1983 63 EP MM PRISCILLA 1983-10-06 06:00:00 TS 23.6307 -120.506 45 hurdat_epa main 716 690 O_________P___ hurdat_epa EP161983 23.6000 -120.500 TS 45 0 23.7229 -120.522 2 42 13 340
1983274N12251 1983 63 EP MM PRISCILLA 1983-10-06 09:00:00 TS 24.2688 -120.741 main 684 665 P_________P___ EP161983 24.2500 -120.737 TS 37 0 24.3250 -120.754 2 36 13 344
1983274N12251 1983 63 EP MM PRISCILLA 1983-10-06 12:00:00 TS 24.9000 -120.900 30 hurdat_epa main 665 644 O_________O___ hurdat_epa EP161983 24.9000 -120.900 TD 30 -1 24.9000 -120.900 1 30 12 351
1983274N12251 1983 63 EP MM PRISCILLA 1983-10-06 15:00:00 TS 25.4692 -120.951 main 644 614 P_________P___ EP161983 25.4799 -120.960 TD 27 -1 25.4371 -120.923 1 27 11 1
1983274N12251 1983 63 EP MM PRISCILLA 1983-10-06 18:00:00 TS 25.9856 -120.885 25 hurdat_epa main 614 582 O_________P___ hurdat_epa EP161983 26.0000 -120.900 TD 25 -1 25.9424 -120.841 1 25 10 12
1983274N12251 1983 63 EP MM PRISCILLA 1983-10-06 21:00:00 TS 26.4555 -120.720 main 579 550 P_________P___ EP161983 26.4651 -120.730 TD 22 -1 26.4266 -120.689 1 22 10 21
1983274N12251 1983 63 EP MM PRISCILLA 1983-10-07 00:00:00 TS 26.9000 -120.500 20 hurdat_epa main 550 O_________O___ hurdat_epa EP161983 26.9000 -120.500 TD 20 -1 26.9000 -120.500 1 20 10 24

IBTrACS Databaseについて

本データベースは、米国NOAAが公開する1842年以降の世界の熱帯低気圧のベストトラックデータアーカイブInternational Best Track Archive for Climate Stewardship (IBTrACS)を、ウェブで閲覧しやすい形式に変換したものです。

最終更新日:2021-10-08